Antonino, Kansas
Current Conditions -  °F | °C
As of 6:35 PM on Thursday 27 Nov 2014 (Local Time) from KHYS Reporting Station
Clear Clear  
Wind Chill:   Ceiling: Unl
Heat Index:   Visibility: 10mi
Dew Point: -7°   Wind: 12mph
Humidity: 45%   Direction: 160°SSE
Pressure: 30.13"   Gusts: NA
Location:  38.8338°N, 99.3297°W
Report Text: KHYS 280035Z AUTO 16010KT 10SM CLR 04/M07 A3013 RMK AO1
Loading
Personal Weather Stations






























Interactive Weather Map New forecast layout! Learn more

10-Day Weather Forecast

Advertisements
Track Severe Weather on mobile